createdAt,value
2018-08-20T00:00:41.050Z,14.88
2018-08-20T00:01:41.028Z,14.92
2018-08-20T00:02:41.008Z,14.83
2018-08-20T00:03:40.988Z,14.83
2018-08-20T00:04:40.966Z,14.77
2018-08-20T00:05:40.945Z,14.83
2018-08-20T00:06:40.926Z,14.83
2018-08-20T00:07:40.902Z,14.75
2018-08-20T00:08:40.881Z,14.69
2018-08-20T00:09:40.861Z,14.70
2018-08-20T00:10:40.840Z,14.70
2018-08-20T00:11:40.817Z,14.81
2018-08-20T00:12:40.797Z,14.72
2018-08-20T00:13:40.775Z,14.65
2018-08-20T00:14:40.755Z,14.65
2018-08-20T00:15:40.732Z,14.65
2018-08-20T00:16:40.712Z,14.62
2018-08-20T00:17:40.694Z,14.51
2018-08-20T00:18:40.671Z,14.57
2018-08-20T00:19:40.649Z,14.57
2018-08-20T00:20:40.632Z,14.58
2018-08-20T00:21:40.608Z,14.50
2018-08-20T00:22:40.589Z,14.58
2018-08-20T00:23:40.563Z,14.55
2018-08-20T00:24:40.542Z,14.45
2018-08-20T00:25:40.521Z,14.58
2018-08-20T00:26:40.501Z,14.55
2018-08-20T00:27:40.481Z,14.55
2018-08-20T00:28:40.458Z,14.52
2018-08-20T00:29:40.436Z,14.65
2018-08-20T00:30:40.418Z,14.61
2018-08-20T00:31:40.394Z,14.68
2018-08-20T00:32:40.372Z,14.77
2018-08-20T00:33:40.352Z,14.69
2018-08-20T00:34:40.329Z,14.78
2018-08-20T00:35:40.309Z,14.92
2018-08-20T00:36:40.286Z,14.88
2018-08-20T00:37:40.267Z,14.84
2018-08-20T00:38:40.245Z,14.86
2018-08-20T00:39:40.224Z,14.98
2018-08-20T00:40:40.202Z,14.94
2018-08-20T00:41:40.180Z,14.94
2018-08-20T00:42:40.158Z,14.94
2018-08-20T00:43:40.138Z,15.01
2018-08-20T00:44:40.116Z,14.98
2018-08-20T00:45:40.095Z,14.92
2018-08-20T00:46:40.074Z,14.89
2018-08-20T00:47:40.052Z,14.94
2018-08-20T00:48:40.031Z,14.92
2018-08-20T00:49:40.009Z,14.91
2018-08-20T00:50:39.988Z,14.95
2018-08-20T00:51:39.969Z,14.95
2018-08-20T00:52:39.946Z,14.94
2018-08-20T00:53:39.923Z,14.89
2018-08-20T00:54:39.902Z,14.91
2018-08-20T00:55:39.879Z,14.89
2018-08-20T00:56:39.860Z,14.95
2018-08-20T00:57:39.837Z,15.07
2018-08-20T00:58:39.817Z,15.06
2018-08-20T00:59:39.794Z,15.07
2018-08-20T01:00:39.772Z,15.23
2018-08-20T01:01:39.751Z,15.25
2018-08-20T01:02:39.730Z,15.20
2018-08-20T01:03:39.708Z,15.34
2018-08-20T01:04:39.689Z,15.36
2018-08-20T01:05:39.666Z,15.41
2018-08-20T01:06:39.646Z,15.49
2018-08-20T01:07:39.624Z,15.49
2018-08-20T01:08:39.605Z,15.57
2018-08-20T01:09:39.583Z,15.64
2018-08-20T01:10:39.564Z,15.74
2018-08-20T01:11:39.541Z,15.78
2018-08-20T01:12:39.517Z,15.92
2018-08-20T01:13:39.496Z,16.01
2018-08-20T01:14:39.476Z,16.12
2018-08-20T01:15:39.453Z,16.15
2018-08-20T01:16:39.437Z,16.38
2018-08-20T01:17:39.412Z,16.43
2018-08-20T01:18:39.390Z,16.52
2018-08-20T01:19:39.371Z,16.56
2018-08-20T01:20:39.350Z,16.66
2018-08-20T01:21:39.329Z,16.79
2018-08-20T01:22:39.308Z,16.86
2018-08-20T01:23:39.287Z,17.11
2018-08-20T01:24:39.265Z,17.25
2018-08-20T01:25:39.244Z,17.16
2018-08-20T01:26:39.223Z,17.34
2018-08-20T01:27:39.203Z,17.36
2018-08-20T01:28:39.183Z,17.40
2018-08-20T01:29:39.163Z,17.40
2018-08-20T01:30:39.141Z,17.46
2018-08-20T01:31:39.120Z,17.33
2018-08-20T01:32:39.100Z,17.33
2018-08-20T01:33:39.079Z,17.28
2018-08-20T01:34:39.061Z,17.31
2018-08-20T01:35:39.038Z,17.28
2018-08-20T01:36:39.016Z,17.34
2018-08-20T01:37:38.998Z,17.34
2018-08-20T01:38:38.980Z,17.28
2018-08-20T01:39:38.955Z,17.34
2018-08-20T01:40:38.936Z,17.33
2018-08-20T01:41:38.915Z,17.34
2018-08-20T01:42:38.908Z,17.34
2018-08-20T01:43:38.873Z,17.31
2018-08-20T01:44:38.854Z,17.31
2018-08-20T01:45:38.839Z,17.44
2018-08-20T01:46:38.814Z,17.48
2018-08-20T01:47:38.791Z,17.41
2018-08-20T01:48:38.773Z,17.54
2018-08-20T01:49:38.752Z,17.54
2018-08-20T01:50:38.732Z,17.62
2018-08-20T01:51:38.711Z,17.62
2018-08-20T01:52:38.695Z,17.59
2018-08-20T01:53:38.672Z,17.55
2018-08-20T01:54:38.651Z,17.58
2018-08-20T01:55:38.631Z,17.63
2018-08-20T01:56:38.611Z,17.66
2018-08-20T01:57:38.590Z,17.74
2018-08-20T01:58:38.571Z,17.72
2018-08-20T01:59:38.549Z,17.81
2018-08-20T02:00:38.530Z,17.77
2018-08-20T02:01:38.513Z,17.81
2018-08-20T02:02:38.490Z,17.87
2018-08-20T02:03:38.468Z,17.93
2018-08-20T02:04:38.449Z,17.84
2018-08-20T02:05:38.433Z,17.86
2018-08-20T02:06:38.409Z,17.87
2018-08-20T02:07:38.388Z,17.81
2018-08-20T02:08:38.370Z,17.86
2018-08-20T02:09:38.350Z,17.96
2018-08-20T02:10:38.330Z,17.90
2018-08-20T02:11:38.311Z,18.03
2018-08-20T02:12:38.288Z,17.95
2018-08-20T02:13:38.269Z,17.99
2018-08-20T02:14:38.250Z,17.97
2018-08-20T02:15:38.229Z,18.03
2018-08-20T02:16:38.208Z,18.00
2018-08-20T02:17:38.188Z,17.99
2018-08-20T02:18:38.170Z,18.10
2018-08-20T02:19:38.150Z,18.11
2018-08-20T02:20:38.129Z,18.03
2018-08-20T02:21:38.109Z,18.07
2018-08-20T02:22:38.089Z,18.12
2018-08-20T02:23:38.069Z,18.07
2018-08-20T02:24:38.054Z,18.08
2018-08-20T02:25:38.029Z,17.99
2018-08-20T02:26:38.010Z,18.12
2018-08-20T02:27:37.989Z,18.05
2018-08-20T02:28:37.969Z,18.08
2018-08-20T02:29:37.950Z,18.08
2018-08-20T02:30:37.931Z,18.10
2018-08-20T02:31:37.910Z,18.12
2018-08-20T02:32:37.890Z,18.10
2018-08-20T02:33:37.870Z,18.08
2018-08-20T02:34:37.852Z,18.11
2018-08-20T02:35:37.831Z,18.14
2018-08-20T02:36:37.811Z,18.07
2018-08-20T02:37:37.792Z,18.10
2018-08-20T02:38:37.772Z,18.05
2018-08-20T02:39:37.751Z,18.08
2018-08-20T02:40:37.732Z,18.11
2018-08-20T02:41:37.714Z,18.08
2018-08-20T02:42:37.693Z,18.11
2018-08-20T02:43:37.674Z,18.12
2018-08-20T02:44:37.653Z,18.14
2018-08-20T02:45:37.633Z,18.14
2018-08-20T02:46:37.614Z,18.18
2018-08-20T02:47:37.593Z,18.14
2018-08-20T02:48:37.573Z,18.18
2018-08-20T02:49:37.553Z,18.25
2018-08-20T02:50:37.534Z,18.23
2018-08-20T02:51:37.514Z,18.27
2018-08-20T02:52:37.496Z,18.25
2018-08-20T02:53:37.476Z,18.32
2018-08-20T02:54:37.454Z,18.33
2018-08-20T02:55:37.434Z,18.35
2018-08-20T02:56:37.415Z,18.39
2018-08-20T02:57:37.395Z,18.33
2018-08-20T02:58:37.375Z,18.41
2018-08-20T02:59:37.357Z,18.42
2018-08-20T03:00:37.336Z,18.45
2018-08-20T03:01:37.317Z,18.48
2018-08-20T03:02:37.298Z,18.50
2018-08-20T03:03:37.289Z,18.50
2018-08-20T03:04:37.257Z,18.55
2018-08-20T03:05:37.239Z,18.54
2018-08-20T03:06:37.218Z,18.48
2018-08-20T03:07:37.197Z,18.52
2018-08-20T03:08:37.181Z,18.65
2018-08-20T03:09:37.160Z,18.60
2018-08-20T03:10:37.138Z,18.62
2018-08-20T03:11:37.121Z,18.63
2018-08-20T03:12:37.100Z,18.60
2018-08-20T03:13:37.081Z,18.72
2018-08-20T03:14:37.062Z,18.62
2018-08-20T03:15:37.041Z,18.63
2018-08-20T03:16:37.020Z,18.63
2018-08-20T03:17:37.003Z,18.72
2018-08-20T03:18:36.984Z,18.66
2018-08-20T03:19:36.963Z,18.63
2018-08-20T03:20:36.943Z,18.62
2018-08-20T03:21:36.923Z,18.69
2018-08-20T03:22:36.903Z,18.63
2018-08-20T03:23:36.883Z,18.60
2018-08-20T03:24:36.866Z,18.66
2018-08-20T03:25:36.852Z,18.76
2018-08-20T03:26:36.825Z,18.67
2018-08-20T03:27:36.806Z,18.78
2018-08-20T03:28:36.835Z,18.69
2018-08-20T03:29:36.766Z,18.67
2018-08-20T03:30:36.746Z,18.78
2018-08-20T03:31:36.728Z,18.66
2018-08-20T03:32:36.714Z,18.75
2018-08-20T03:33:36.691Z,18.63
2018-08-20T03:34:36.669Z,18.65
2018-08-20T03:35:36.651Z,18.63
2018-08-20T03:36:36.630Z,18.62
2018-08-20T03:37:36.610Z,18.63
2018-08-20T03:38:36.590Z,18.62
2018-08-20T03:39:36.571Z,18.63
2018-08-20T03:40:36.551Z,18.62
2018-08-20T03:41:36.535Z,18.63
2018-08-20T03:42:36.515Z,18.63
2018-08-20T03:43:36.492Z,18.62
2018-08-20T03:44:36.473Z,18.70
2018-08-20T03:45:36.455Z,18.67
2018-08-20T03:46:36.436Z,18.67
2018-08-20T03:47:36.418Z,18.75
2018-08-20T03:48:36.396Z,18.72
2018-08-20T03:49:36.378Z,18.70
2018-08-20T03:50:36.358Z,18.70
2018-08-20T03:51:36.339Z,18.70
2018-08-20T03:52:36.319Z,18.65
2018-08-20T03:53:36.299Z,18.58
2018-08-20T03:54:36.279Z,18.66
2018-08-20T03:55:36.268Z,18.67
2018-08-20T03:56:36.241Z,18.66
2018-08-20T03:57:36.219Z,18.60
2018-08-20T03:58:36.200Z,18.58
2018-08-20T03:59:36.187Z,18.65
2018-08-20T04:00:36.163Z,18.60
2018-08-20T04:01:36.144Z,18.58
2018-08-20T04:02:36.123Z,18.65
2018-08-20T04:03:36.103Z,18.69
2018-08-20T04:04:36.085Z,18.69
2018-08-20T04:05:36.068Z,18.78
2018-08-20T04:06:36.045Z,18.72
2018-08-20T04:07:36.026Z,18.75
2018-08-20T04:08:36.006Z,18.73
2018-08-20T04:09:35.987Z,18.73
2018-08-20T04:10:35.967Z,18.75
2018-08-20T04:11:35.946Z,18.80
2018-08-20T04:12:35.927Z,18.81
2018-08-20T04:13:35.909Z,18.76
2018-08-20T04:14:35.890Z,18.88
2018-08-20T04:15:35.868Z,18.94
2018-08-20T04:16:35.850Z,18.82
2018-08-20T04:17:35.833Z,18.85
2018-08-20T04:18:35.811Z,18.94
2018-08-20T04:19:35.791Z,18.92
2018-08-20T04:20:35.772Z,18.99
2018-08-20T04:21:35.753Z,18.95
2018-08-20T04:22:35.735Z,18.98
2018-08-20T04:23:35.714Z,18.99
2018-08-20T04:24:35.695Z,18.94
2018-08-20T04:25:35.680Z,18.99
2018-08-20T04:26:35.658Z,18.99
2018-08-20T04:27:35.635Z,19.13
2018-08-20T04:28:35.615Z,18.99
2018-08-20T04:29:35.597Z,19.13
2018-08-20T04:30:35.661Z,19.07
2018-08-20T04:31:35.558Z,19.21
2018-08-20T04:32:35.538Z,19.19
2018-08-20T04:33:35.519Z,19.26
2018-08-20T04:34:35.508Z,19.28
2018-08-20T04:35:35.481Z,19.25
2018-08-20T04:36:35.535Z,19.39
2018-08-20T04:37:35.443Z,19.40
2018-08-20T04:38:35.422Z,19.39
2018-08-20T04:39:35.402Z,19.39
2018-08-20T04:40:35.384Z,19.43
2018-08-20T04:41:35.364Z,19.44
2018-08-20T04:42:35.344Z,19.55
2018-08-20T04:43:35.325Z,19.47
2018-08-20T04:44:35.311Z,19.54
2018-08-20T04:45:35.285Z,19.55
2018-08-20T04:46:35.267Z,19.56
2018-08-20T04:47:35.247Z,19.61
2018-08-20T04:48:35.228Z,19.63
2018-08-20T04:49:35.209Z,19.61
2018-08-20T04:50:35.264Z,19.63
2018-08-20T04:51:35.185Z,19.61
2018-08-20T04:52:35.150Z,19.69
2018-08-20T04:53:35.132Z,19.69
2018-08-20T04:54:35.113Z,19.73
2018-08-20T04:55:35.093Z,19.68
2018-08-20T04:56:35.074Z,19.69
2018-08-20T04:57:35.054Z,19.78
2018-08-20T04:58:35.035Z,19.78
2018-08-20T04:59:35.014Z,19.81
2018-08-20T05:00:34.996Z,19.88
2018-08-20T05:01:34.976Z,19.91
2018-08-20T05:02:34.959Z,19.94
2018-08-20T05:03:34.939Z,19.95
2018-08-20T05:04:34.920Z,20.02
2018-08-20T05:05:34.904Z,19.99
2018-08-20T05:06:34.884Z,19.94
2018-08-20T05:07:34.861Z,19.92
2018-08-20T05:08:34.843Z,20.03
2018-08-20T05:09:34.826Z,20.05
2018-08-20T05:10:34.806Z,20.05
2018-08-20T05:11:34.785Z,20.14
2018-08-20T05:12:34.766Z,20.14
2018-08-20T05:13:34.747Z,20.17
2018-08-20T05:14:34.729Z,20.13
2018-08-20T05:15:34.709Z,20.31
2018-08-20T05:16:34.695Z,20.26
2018-08-20T05:17:34.674Z,20.36
2018-08-20T05:18:34.652Z,20.35
2018-08-20T05:19:34.632Z,20.31
2018-08-20T05:20:34.613Z,20.32
2018-08-20T05:21:34.596Z,20.31
2018-08-20T05:22:34.576Z,20.39
2018-08-20T05:23:34.557Z,20.38
2018-08-20T05:24:34.539Z,20.48
2018-08-20T05:25:34.520Z,20.48
2018-08-20T05:26:34.501Z,20.55
2018-08-20T05:27:34.481Z,20.58
2018-08-20T05:28:34.463Z,20.54
2018-08-20T05:29:34.446Z,20.59
2018-08-20T05:30:34.427Z,20.69
2018-08-20T05:31:34.406Z,20.80
2018-08-20T05:32:34.388Z,20.84
2018-08-20T05:33:34.378Z,20.76
2018-08-20T05:34:34.356Z,20.77
2018-08-20T05:35:34.333Z,20.82
2018-08-20T05:36:34.316Z,20.77
2018-08-20T05:37:34.295Z,20.82
2018-08-20T05:38:34.277Z,20.79
2018-08-20T05:39:34.261Z,20.89
2018-08-20T05:40:34.241Z,20.89
2018-08-20T05:41:34.222Z,21.01
2018-08-20T05:42:34.209Z,20.98
2018-08-20T05:43:34.186Z,20.98
2018-08-20T05:44:34.169Z,20.99
2018-08-20T05:45:34.153Z,21.06
2018-08-20T05:46:34.133Z,21.09
2018-08-20T05:47:34.114Z,21.06
2018-08-20T05:48:34.094Z,21.04
2018-08-20T05:49:34.076Z,20.99
2018-08-20T05:50:34.061Z,21.03
2018-08-20T05:51:34.041Z,21.06
2018-08-20T05:52:34.103Z,21.12
2018-08-20T05:53:34.003Z,21.10
2018-08-20T05:54:33.986Z,21.09
2018-08-20T05:55:33.968Z,21.06
2018-08-20T05:56:33.950Z,21.09
2018-08-20T05:57:33.932Z,21.09
2018-08-20T05:58:33.915Z,21.14
2018-08-20T05:59:33.896Z,21.04
2018-08-20T06:00:33.880Z,21.09
2018-08-20T06:01:33.860Z,21.13
2018-08-20T06:02:33.841Z,21.19
2018-08-20T06:03:33.824Z,21.07
2018-08-20T06:04:33.804Z,21.07
2018-08-20T06:05:33.788Z,21.16
2018-08-20T06:06:33.769Z,21.16
2018-08-20T06:07:33.751Z,21.24
2018-08-20T06:08:33.733Z,21.16
2018-08-20T06:09:33.714Z,21.25
2018-08-20T06:10:33.698Z,21.34
2018-08-20T06:11:33.680Z,21.38
2018-08-20T06:12:33.661Z,21.37
2018-08-20T06:13:33.646Z,21.37
2018-08-20T06:14:33.626Z,21.38
2018-08-20T06:15:33.608Z,21.37
2018-08-20T06:16:33.590Z,21.50
2018-08-20T06:17:33.572Z,21.42
2018-08-20T06:18:33.556Z,21.49
2018-08-20T06:19:33.540Z,21.54
2018-08-20T06:20:33.518Z,21.67
2018-08-20T06:21:33.502Z,21.84
2018-08-20T06:22:33.542Z,21.80
2018-08-20T06:23:33.467Z,21.83
2018-08-20T06:24:33.448Z,21.90
2018-08-20T06:25:33.435Z,22.02
2018-08-20T06:26:33.413Z,22.12
2018-08-20T06:27:33.397Z,22.14
2018-08-20T06:28:33.426Z,22.15
2018-08-20T06:29:33.360Z,22.06
2018-08-20T06:30:33.343Z,22.12
2018-08-20T06:31:33.325Z,22.18
2018-08-20T06:32:33.306Z,22.20
2018-08-20T06:33:33.290Z,22.27
2018-08-20T06:34:33.272Z,22.36
2018-08-20T06:35:33.254Z,22.46
2018-08-20T06:36:33.238Z,22.39
2018-08-20T06:37:33.224Z,22.45
2018-08-20T06:38:33.205Z,22.55
2018-08-20T06:39:33.185Z,22.49
2018-08-20T06:40:33.169Z,22.51
2018-08-20T06:41:33.200Z,22.35
2018-08-20T06:42:33.134Z,22.17
2018-08-20T06:43:33.115Z,22.10
2018-08-20T06:44:33.100Z,22.03
2018-08-20T06:45:33.082Z,22.05
2018-08-20T06:46:33.066Z,22.05
2018-08-20T06:47:33.048Z,21.94
2018-08-20T06:48:33.030Z,22.02
2018-08-20T06:49:33.013Z,21.98
2018-08-20T06:50:32.997Z,21.84
2018-08-20T06:51:32.978Z,21.84
2018-08-20T06:52:32.961Z,21.67
2018-08-20T06:53:32.947Z,21.50
2018-08-20T06:54:32.967Z,21.59
2018-08-20T06:55:32.908Z,21.64
2018-08-20T06:56:32.890Z,21.56
2018-08-20T06:57:32.873Z,21.62
2018-08-20T06:58:32.856Z,21.62
2018-08-20T06:59:32.837Z,21.69
2018-08-20T07:00:32.820Z,21.69
2018-08-20T07:01:32.804Z,21.59
2018-08-20T07:02:32.786Z,21.65
2018-08-20T07:03:32.768Z,21.77
2018-08-20T07:04:32.750Z,21.79
2018-08-20T07:05:32.732Z,21.96
2018-08-20T07:06:32.802Z,22.02
2018-08-20T07:07:32.696Z,22.02
2018-08-20T07:08:32.681Z,22.03
2018-08-20T07:09:32.661Z,22.03
2018-08-20T07:10:32.646Z,22.05
2018-08-20T07:11:32.626Z,22.12
2018-08-20T07:12:32.609Z,22.12
2018-08-20T07:13:32.592Z,22.24
2018-08-20T07:14:32.576Z,22.25
2018-08-20T07:15:32.556Z,22.21
2018-08-20T07:16:32.548Z,22.35
2018-08-20T07:17:32.534Z,22.47
2018-08-20T07:18:32.504Z,22.70
2018-08-20T07:19:32.490Z,22.79
2018-08-20T07:20:32.470Z,22.92
2018-08-20T07:21:32.452Z,22.79
2018-08-20T07:22:32.436Z,22.80
2018-08-20T07:23:32.585Z,22.64
2018-08-20T07:24:32.400Z,22.72
2018-08-20T07:25:32.384Z,22.83
2018-08-20T07:26:32.367Z,22.95
2018-08-20T07:27:32.349Z,23.00
2018-08-20T07:28:32.333Z,22.90
2018-08-20T07:29:32.315Z,22.83
2018-08-20T07:30:32.299Z,23.00
2018-08-20T07:31:32.280Z,23.16
2018-08-20T07:32:32.265Z,23.04
2018-08-20T07:33:32.249Z,23.16
2018-08-20T07:34:32.231Z,23.15
2018-08-20T07:35:32.215Z,22.95
2018-08-20T07:36:32.197Z,22.91
2018-08-20T07:37:32.180Z,22.85
2018-08-20T07:38:32.164Z,23.02
2018-08-20T07:39:32.148Z,23.16
2018-08-20T07:40:32.131Z,23.23
2018-08-20T07:41:32.115Z,23.50
2018-08-20T07:42:32.121Z,23.57
2018-08-20T07:43:32.082Z,23.53
2018-08-20T07:44:32.066Z,23.53
2018-08-20T07:45:32.051Z,23.27
2018-08-20T07:46:32.037Z,23.36
2018-08-20T07:47:32.015Z,23.48
2018-08-20T07:48:32.003Z,23.46
2018-08-20T07:49:31.983Z,23.53
2018-08-20T07:50:31.967Z,23.48
2018-08-20T07:51:31.949Z,23.63
2018-08-20T07:52:31.934Z,23.60
2018-08-20T07:53:31.918Z,23.57
2018-08-20T07:54:31.901Z,23.35
2018-08-20T07:55:31.889Z,23.36
2018-08-20T07:56:31.868Z,23.27
2018-08-20T07:57:31.852Z,23.00
2018-08-20T07:58:31.836Z,22.80
2018-08-20T07:59:31.821Z,22.67
2018-08-20T08:00:31.804Z,22.52
2018-08-20T08:01:31.787Z,22.62
2018-08-20T08:02:31.773Z,22.52
2018-08-20T08:03:31.752Z,22.39
2018-08-20T08:04:31.737Z,22.46
2018-08-20T08:05:31.720Z,22.37
2018-08-20T08:06:31.704Z,22.37
2018-08-20T08:07:31.685Z,22.33
2018-08-20T08:08:31.681Z,22.24
2018-08-20T08:09:31.653Z,21.92
2018-08-20T08:10:31.635Z,21.69
2018-08-20T08:11:31.621Z,21.62
2018-08-20T08:12:31.600Z,21.54
2018-08-20T08:13:31.586Z,21.28
2018-08-20T08:14:31.567Z,21.13
2018-08-20T08:15:31.551Z,21.01
2018-08-20T08:16:31.531Z,20.88
2018-08-20T08:17:31.513Z,20.76
2018-08-20T08:18:31.496Z,20.73
2018-08-20T08:19:31.479Z,20.77
2018-08-20T08:20:31.461Z,20.79
2018-08-20T08:21:31.443Z,20.94
2018-08-20T08:22:31.429Z,20.99
2018-08-20T08:23:31.406Z,21.09
2018-08-20T08:24:31.390Z,21.06
2018-08-20T08:25:31.374Z,21.22
2018-08-20T08:26:31.417Z,21.38
2018-08-20T08:27:31.335Z,21.46
2018-08-20T08:28:31.324Z,21.58
2018-08-20T08:29:31.300Z,21.86
2018-08-20T08:30:31.286Z,22.06
2018-08-20T08:31:31.264Z,22.39
2018-08-20T08:32:31.248Z,22.62
2018-08-20T08:33:31.229Z,22.83
2018-08-20T08:34:31.212Z,22.98
2018-08-20T08:35:31.197Z,23.00
2018-08-20T08:36:31.177Z,23.32
2018-08-20T08:37:31.162Z,23.75
2018-08-20T08:38:31.147Z,23.94
2018-08-20T08:39:31.131Z,24.20
2018-08-20T08:40:31.112Z,24.69
2018-08-20T08:41:31.096Z,25.14
2018-08-20T08:42:31.079Z,26.05
2018-08-20T08:43:31.062Z,26.06
2018-08-20T08:44:31.047Z,25.88
2018-08-20T08:45:31.032Z,25.85
2018-08-20T08:46:31.017Z,26.02
2018-08-20T08:47:31.001Z,25.91
2018-08-20T08:48:30.986Z,25.82
2018-08-20T08:49:30.972Z,25.91
2018-08-20T08:50:30.957Z,25.97
2018-08-20T08:51:30.943Z,25.91
2018-08-20T08:52:30.927Z,25.61
2018-08-20T08:53:30.912Z,25.24
2018-08-20T08:54:30.901Z,25.02
2018-08-20T08:55:30.885Z,24.99
2018-08-20T08:56:30.871Z,25.00
2018-08-20T08:57:30.855Z,24.84
2018-08-20T08:58:30.843Z,24.53
2018-08-20T08:59:30.827Z,24.18
2018-08-20T09:00:30.838Z,23.76
2018-08-20T09:01:30.797Z,23.50
2018-08-20T09:02:30.782Z,23.17
2018-08-20T09:03:30.765Z,22.70
2018-08-20T09:04:30.752Z,22.51
2018-08-20T09:05:30.737Z,22.39
2018-08-20T09:06:30.721Z,22.40
2018-08-20T09:07:30.705Z,22.33
2018-08-20T09:08:30.689Z,23.70
2018-08-20T09:09:30.674Z,24.67
2018-08-20T09:10:30.659Z,25.90
2018-08-20T09:11:30.643Z,25.80
2018-08-20T09:12:30.627Z,25.54
2018-08-20T09:13:30.611Z,25.17
2018-08-20T09:14:30.596Z,25.25
2018-08-20T09:15:30.580Z,25.18
2018-08-20T09:16:30.567Z,25.09
2018-08-20T09:17:30.557Z,24.81
2018-08-20T09:18:30.536Z,24.55
2018-08-20T09:19:30.520Z,24.55
2018-08-20T09:20:30.563Z,24.09
2018-08-20T09:21:30.490Z,23.84
2018-08-20T09:22:30.475Z,23.53
2018-08-20T09:23:30.461Z,23.20
2018-08-20T09:24:30.445Z,23.32
2018-08-20T09:25:30.430Z,23.35
2018-08-20T09:26:30.414Z,23.33
2018-08-20T09:27:30.399Z,23.39
2018-08-20T09:28:30.387Z,23.79
2018-08-20T09:29:30.368Z,24.09
2018-08-20T09:30:30.353Z,24.09
2018-08-20T09:31:30.338Z,24.02
2018-08-20T09:32:30.322Z,24.12
2018-08-20T09:33:30.307Z,24.39
2018-08-20T09:34:30.291Z,25.32
2018-08-20T09:35:30.275Z,26.66
2018-08-20T09:36:30.260Z,26.32
2018-08-20T09:37:30.245Z,26.65
2018-08-20T09:38:30.229Z,26.33
2018-08-20T09:39:30.214Z,26.02
2018-08-20T09:40:30.203Z,25.97
2018-08-20T09:41:30.186Z,25.72
2018-08-20T09:42:30.171Z,25.57
2018-08-20T09:43:30.159Z,25.06
2018-08-20T09:44:30.141Z,24.71
2018-08-20T09:45:30.129Z,24.06
2018-08-20T09:46:30.113Z,23.90
2018-08-20T09:47:30.098Z,23.61
2018-08-20T09:48:30.084Z,23.09
2018-08-20T09:49:30.068Z,23.07
2018-08-20T09:50:30.053Z,22.97
2018-08-20T09:51:30.037Z,22.95
2018-08-20T09:52:30.024Z,23.17
2018-08-20T09:53:30.136Z,23.47
2018-08-20T09:54:29.993Z,23.65
2018-08-20T09:55:29.977Z,23.68
2018-08-20T09:56:29.963Z,23.76
2018-08-20T09:57:29.947Z,24.18
2018-08-20T09:58:29.932Z,24.28
2018-08-20T09:59:29.919Z,24.87
2018-08-20T10:00:29.899Z,25.15
2018-08-20T10:01:29.886Z,25.02
2018-08-20T10:02:29.871Z,25.43
2018-08-20T10:03:29.855Z,25.67
2018-08-20T10:04:29.841Z,26.30
2018-08-20T10:05:29.825Z,26.55
2018-08-20T10:06:29.810Z,26.12
2018-08-20T10:07:29.861Z,25.90
2018-08-20T10:08:29.800Z,26.29
2018-08-20T10:09:29.801Z,26.70
2018-08-20T10:10:29.756Z,27.36
2018-08-20T10:11:29.741Z,28.18
2018-08-20T10:12:29.727Z,29.00
2018-08-20T10:13:29.715Z,29.08
2018-08-20T10:14:29.701Z,29.05
2018-08-20T10:15:29.686Z,28.56
2018-08-20T10:16:29.678Z,28.04
2018-08-20T10:17:29.663Z,27.84
2018-08-20T10:18:29.653Z,26.39
2018-08-20T10:19:29.635Z,25.80
2018-08-20T10:20:29.622Z,25.50
2018-08-20T10:21:29.610Z,24.83
2018-08-20T10:22:29.596Z,24.78
2018-08-20T10:23:29.582Z,24.91
2018-08-20T10:24:29.586Z,25.10
2018-08-20T10:25:29.559Z,24.88
2018-08-20T10:26:29.542Z,24.96
2018-08-20T10:27:29.527Z,25.02
2018-08-20T10:28:29.513Z,24.81
2018-08-20T10:29:29.500Z,24.91
2018-08-20T10:30:29.485Z,25.20
2018-08-20T10:31:29.474Z,25.55
2018-08-20T10:32:29.459Z,25.55
2018-08-20T10:33:29.445Z,25.15
2018-08-20T10:34:29.432Z,25.47
2018-08-20T10:35:29.414Z,25.61
2018-08-20T10:36:29.404Z,25.85
2018-08-20T10:37:29.438Z,25.87
2018-08-20T10:38:29.373Z,25.65
2018-08-20T10:39:29.360Z,25.62
2018-08-20T10:40:29.345Z,25.80
2018-08-20T10:41:29.331Z,25.85
2018-08-20T10:42:29.317Z,25.39
2018-08-20T10:43:29.305Z,25.52
2018-08-20T10:44:29.292Z,25.61
2018-08-20T10:45:29.276Z,25.32
2018-08-20T10:46:29.263Z,25.70
2018-08-20T10:47:29.248Z,26.02
2018-08-20T10:48:29.233Z,25.87
2018-08-20T10:49:29.219Z,25.87
2018-08-20T10:50:29.207Z,25.91
2018-08-20T10:51:29.195Z,25.75
2018-08-20T10:52:29.179Z,25.91
2018-08-20T10:53:29.163Z,25.92
2018-08-20T10:54:29.149Z,25.83
2018-08-20T10:55:29.142Z,26.17
2018-08-20T10:56:29.223Z,25.88
2018-08-20T10:57:29.109Z,26.07
2018-08-20T10:58:29.095Z,26.48
2018-08-20T10:59:29.080Z,26.82
2018-08-20T11:00:29.066Z,27.54
2018-08-20T11:01:29.054Z,27.88
2018-08-20T11:02:29.039Z,28.02
2018-08-20T11:03:29.027Z,28.02
2018-08-20T11:04:29.013Z,27.81
2018-08-20T11:05:29.002Z,28.02
2018-08-20T11:06:28.986Z,27.90
2018-08-20T11:07:28.973Z,27.81
2018-08-20T11:08:28.959Z,27.19
2018-08-20T11:09:28.946Z,27.17
2018-08-20T11:10:28.934Z,26.85
2018-08-20T11:11:28.922Z,26.72
2018-08-20T11:12:28.906Z,26.95
2018-08-20T11:13:28.893Z,27.17
2018-08-20T11:14:28.880Z,27.04
2018-08-20T11:15:28.867Z,26.92
2018-08-20T11:16:28.854Z,26.85
2018-08-20T11:17:28.840Z,26.82
2018-08-20T11:18:28.919Z,26.97
2018-08-20T11:19:28.813Z,27.07
2018-08-20T11:20:28.799Z,27.50
2018-08-20T11:21:28.788Z,27.75
2018-08-20T11:22:28.774Z,27.92
2018-08-20T11:23:28.759Z,27.96
2018-08-20T11:24:28.749Z,27.99
2018-08-20T11:25:28.734Z,27.72
2018-08-20T11:26:28.745Z,27.49
2018-08-20T11:27:28.748Z,27.34
2018-08-20T11:28:28.695Z,27.27
2018-08-20T11:29:28.680Z,27.18
2018-08-20T11:30:28.668Z,27.02
2018-08-20T11:31:28.657Z,26.82
2018-08-20T11:32:28.640Z,26.57
2018-08-20T11:33:28.626Z,26.18
2018-08-20T11:34:28.614Z,25.72
2018-08-20T11:35:28.600Z,25.09
2018-08-20T11:36:28.598Z,24.57
2018-08-20T11:37:28.574Z,24.15
2018-08-20T11:38:28.560Z,24.00
2018-08-20T11:39:28.542Z,23.83
2018-08-20T11:40:28.529Z,23.65
2018-08-20T11:41:28.520Z,23.39
2018-08-20T11:42:28.499Z,23.22
2018-08-20T11:43:28.488Z,23.00
2018-08-20T11:44:28.472Z,22.94
2018-08-20T11:45:28.453Z,22.72
2018-08-20T11:46:28.438Z,22.57
2018-08-20T11:47:28.422Z,22.61
2018-08-20T11:48:28.405Z,22.62
2018-08-20T11:49:28.390Z,22.60
2018-08-20T11:50:28.374Z,22.62
2018-08-20T11:51:28.357Z,22.62
2018-08-20T11:52:28.341Z,22.65
2018-08-20T11:53:28.325Z,22.62
2018-08-20T11:54:28.308Z,22.77
2018-08-20T11:55:28.291Z,22.82
2018-08-20T11:56:28.273Z,22.92
2018-08-20T11:57:28.255Z,22.97
2018-08-20T11:58:28.241Z,23.09
2018-08-20T11:59:28.225Z,23.10
2018-08-20T12:00:28.207Z,23.28
2018-08-20T12:01:28.190Z,23.27
2018-08-20T12:02:28.174Z,23.33
2018-08-20T12:03:28.156Z,23.43
2018-08-20T12:04:28.138Z,23.36
2018-08-20T12:05:28.122Z,23.40
2018-08-20T12:06:28.106Z,23.36
2018-08-20T12:07:28.265Z,23.22
2018-08-20T12:08:28.071Z,23.10
2018-08-20T12:09:28.055Z,23.12
2018-08-20T12:10:28.039Z,23.12
2018-08-20T12:11:28.021Z,23.13
2018-08-20T12:12:28.004Z,23.07
2018-08-20T12:13:27.986Z,23.17
2018-08-20T12:14:27.975Z,23.12
2018-08-20T12:15:27.953Z,23.04
2018-08-20T12:16:27.937Z,23.05
2018-08-20T12:17:27.922Z,23.09
2018-08-20T12:18:27.903Z,23.27
2018-08-20T12:19:27.886Z,23.33
2018-08-20T12:20:27.870Z,23.42
2018-08-20T12:21:27.853Z,23.60
2018-08-20T12:22:27.863Z,23.79
2018-08-20T12:23:27.821Z,23.79
2018-08-20T12:24:27.803Z,23.95
2018-08-20T12:25:27.786Z,24.24
2018-08-20T12:26:27.771Z,24.35
2018-08-20T12:27:27.754Z,24.62
2018-08-20T12:28:27.738Z,25.02
2018-08-20T12:29:27.724Z,25.80
2018-08-20T12:30:27.707Z,26.12
2018-08-20T12:31:27.691Z,25.76
2018-08-20T12:32:27.676Z,25.75
2018-08-20T12:33:27.661Z,25.82
2018-08-20T12:34:27.837Z,25.65
2018-08-20T12:35:27.629Z,25.65
2018-08-20T12:36:27.615Z,25.67
2018-08-20T12:37:27.599Z,25.91
2018-08-20T12:38:27.585Z,25.99
2018-08-20T12:39:27.569Z,26.32
2018-08-20T12:40:27.759Z,27.04
2018-08-20T12:41:27.541Z,27.19
2018-08-20T12:42:27.525Z,28.36
2018-08-20T12:43:27.512Z,28.83
2018-08-20T12:44:27.497Z,29.00
2018-08-20T12:45:27.483Z,29.64
2018-08-20T12:46:27.469Z,30.57
2018-08-20T12:47:27.454Z,31.13
2018-08-20T12:48:27.441Z,31.68
2018-08-20T12:49:27.428Z,31.32
2018-08-20T12:50:27.413Z,31.80
2018-08-20T12:51:27.398Z,31.65
2018-08-20T12:52:27.385Z,32.00